createdAt,value
2022-08-04T00:04:45.735Z,27.98
2022-08-04T00:10:06.766Z,27.99
2022-08-04T00:15:15.017Z,27.95
2022-08-04T00:20:22.928Z,27.92
2022-08-04T00:25:29.603Z,27.82
2022-08-04T00:30:35.794Z,27.56
2022-08-04T00:35:41.602Z,27.32
2022-08-04T00:41:11.225Z,27.19
2022-08-04T00:46:43.882Z,27.04
2022-08-04T00:52:32.485Z,26.37
2022-08-04T00:57:33.526Z,26.11
2022-08-04T01:02:30.044Z,25.88
2022-08-04T01:08:05.946Z,25.77
2022-08-04T01:13:20.719Z,25.72
2022-08-04T01:18:43.548Z,25.59
2022-08-04T01:24:14.968Z,25.50
2022-08-04T01:29:24.247Z,25.32
2022-08-04T01:34:37.443Z,25.10
2022-08-04T01:39:45.989Z,25.04
2022-08-04T01:44:52.573Z,24.96
2022-08-04T01:50:01.112Z,24.80
2022-08-04T01:55:10.948Z,24.80
2022-08-04T02:00:19.512Z,24.67
2022-08-04T02:06:02.589Z,24.58
2022-08-04T02:10:49.992Z,24.51
2022-08-04T02:16:15.387Z,24.46
2022-08-04T02:21:24.062Z,24.45
2022-08-04T02:26:32.349Z,24.29
2022-08-04T02:31:48.914Z,24.22
2022-08-04T02:36:55.593Z,24.13
2022-08-04T02:42:03.122Z,24.02
2022-08-04T02:47:10.913Z,23.99
2022-08-04T02:52:17.697Z,23.92
2022-08-04T02:57:25.857Z,23.86
2022-08-04T03:02:49.335Z,23.76
2022-08-04T03:08:19.814Z,23.69
2022-08-04T03:13:31.093Z,23.60
2022-08-04T03:19:14.634Z,23.58
2022-08-04T03:24:35.047Z,23.56
2022-08-04T03:30:02.115Z,23.47
2022-08-04T03:35:38.027Z,23.36
2022-08-04T03:41:04.854Z,23.35
2022-08-04T03:46:22.403Z,23.27
2022-08-04T03:51:48.959Z,23.28
2022-08-04T03:57:29.140Z,23.28
2022-08-04T04:02:46.657Z,23.28
2022-08-04T04:08:18.708Z,23.24
2022-08-04T04:13:48.192Z,23.25
2022-08-04T04:19:05.429Z,23.26
2022-08-04T04:24:25.741Z,23.28
2022-08-04T04:29:42.060Z,23.21
2022-08-04T04:35:09.945Z,23.33
2022-08-04T04:40:27.388Z,23.53
2022-08-04T04:45:35.924Z,23.73
2022-08-04T04:50:47.015Z,23.96
2022-08-04T04:56:13.988Z,24.18
2022-08-04T05:01:23.232Z,24.39
2022-08-04T05:06:47.129Z,24.61
2022-08-04T05:14:32.794Z,24.80
2022-08-04T05:17:43.931Z,24.92
2022-08-04T05:23:01.348Z,25.03
2022-08-04T05:28:22.191Z,25.19
2022-08-04T05:33:30.093Z,25.36
2022-08-04T05:38:41.581Z,25.62
2022-08-04T05:43:48.127Z,25.81
2022-08-04T05:48:54.629Z,26.06
2022-08-04T05:54:02.194Z,26.18
2022-08-04T05:59:10.749Z,26.31
2022-08-04T06:04:17.526Z,26.38
2022-08-04T06:09:23.296Z,26.37
2022-08-04T06:14:31.426Z,26.30
2022-08-04T06:20:00.894Z,26.60
2022-08-04T06:24:50.168Z,26.73
2022-08-04T06:29:57.743Z,26.96
2022-08-04T06:35:05.885Z,27.09
2022-08-04T06:40:31.512Z,27.24
2022-08-04T06:45:25.320Z,27.47
2022-08-04T06:51:32.388Z,27.72
2022-08-04T06:55:42.049Z,27.86
2022-08-04T07:00:49.544Z,28.05
2022-08-04T07:05:55.384Z,28.29
2022-08-04T07:11:02.528Z,28.48
2022-08-04T07:16:11.069Z,28.74
2022-08-04T07:21:24.829Z,28.95
2022-08-04T07:26:30.658Z,29.17
2022-08-04T07:31:36.629Z,29.34
2022-08-04T07:36:50.475Z,29.47
2022-08-04T07:41:50.014Z,29.66
2022-08-04T07:46:56.179Z,29.89
2022-08-04T07:52:03.236Z,30.08
2022-08-04T07:57:08.925Z,30.19
2022-08-04T08:02:16.915Z,30.15
2022-08-04T08:07:22.937Z,30.31
2022-08-04T08:12:35.114Z,30.45
2022-08-04T08:17:59.743Z,30.64
2022-08-04T08:22:45.832Z,30.81
2022-08-04T08:27:55.974Z,30.88
2022-08-04T08:32:59.297Z,31.07
2022-08-04T08:38:07.623Z,31.09
2022-08-04T08:44:06.441Z,31.23
2022-08-04T08:48:42.023Z,31.28
2022-08-04T08:54:22.746Z,31.29
2022-08-04T09:00:00.139Z,31.44
2022-08-04T09:05:37.778Z,31.61
2022-08-04T09:10:51.688Z,31.77
2022-08-04T09:16:17.281Z,31.88
2022-08-04T09:21:34.783Z,32.06
2022-08-04T09:26:43.308Z,32.16
2022-08-04T09:32:07.403Z,32.27
2022-08-04T09:37:20.309Z,32.42
2022-08-04T09:42:29.332Z,32.53
2022-08-04T09:47:50.818Z,32.60
2022-08-04T09:53:32.863Z,32.64
2022-08-04T09:58:46.711Z,32.83
2022-08-04T10:03:58.411Z,32.94
2022-08-04T10:09:36.037Z,33.03
2022-08-04T10:15:01.348Z,33.10
2022-08-04T10:20:44.582Z,33.17
2022-08-04T10:26:07.075Z,33.31
2022-08-04T10:30:57.826Z,33.46
2022-08-04T10:36:06.519Z,33.55
2022-08-04T10:41:19.559Z,33.76
2022-08-04T10:46:30.462Z,33.90
2022-08-04T10:51:57.900Z,33.90
2022-08-04T10:57:12.181Z,33.94
2022-08-04T11:02:30.091Z,33.95
2022-08-04T11:07:38.678Z,34.18
2022-08-04T11:12:46.742Z,34.21
2022-08-04T11:18:00.875Z,34.26
2022-08-04T11:23:15.125Z,34.48
2022-08-04T11:28:32.834Z,34.70
2022-08-04T11:33:47.264Z,34.81
2022-08-04T11:39:17.772Z,34.92
2022-08-04T11:44:38.226Z,35.15
2022-08-04T11:49:56.570Z,35.25
2022-08-04T11:54:55.638Z,35.47
2022-08-04T12:00:07.244Z,35.58
2022-08-04T12:05:32.357Z,35.83
2022-08-04T12:10:41.967Z,35.90
2022-08-04T12:16:00.861Z,35.98
2022-08-04T12:21:09.996Z,36.03
2022-08-04T12:26:34.290Z,36.04
2022-08-04T12:31:52.065Z,36.08
2022-08-04T12:37:08.897Z,36.29
2022-08-04T12:42:56.284Z,36.37
2022-08-04T12:47:52.856Z,36.57
2022-08-04T12:53:02.089Z,36.77
2022-08-04T12:58:09.562Z,37.00
2022-08-04T13:03:17.977Z,37.20
2022-08-04T13:08:25.301Z,37.02
2022-08-04T13:13:33.946Z,37.07
2022-08-04T13:18:42.905Z,36.94
2022-08-04T13:24:20.265Z,36.88
2022-08-04T13:29:16.178Z,37.10
2022-08-04T13:34:18.766Z,37.02
2022-08-04T13:39:23.007Z,37.52
2022-08-04T13:44:31.588Z,37.52
2022-08-04T13:50:00.965Z,37.67
2022-08-04T13:54:48.150Z,37.51
2022-08-04T13:59:58.625Z,37.37
2022-08-04T14:05:07.153Z,37.32
2022-08-04T14:10:16.242Z,37.27
2022-08-04T14:16:02.574Z,37.23
2022-08-04T14:21:03.267Z,37.41
2022-08-04T14:26:20.204Z,37.77
2022-08-04T14:31:30.926Z,37.87
2022-08-04T14:37:13.328Z,37.97
2022-08-04T14:41:51.713Z,38.13
2022-08-04T14:46:59.755Z,38.28
2022-08-04T14:52:05.529Z,38.17
2022-08-04T14:57:11.097Z,38.22
2022-08-04T15:02:18.049Z,38.31
2022-08-04T15:07:23.663Z,38.43
2022-08-04T15:12:29.130Z,38.46
2022-08-04T15:17:34.892Z,38.53
2022-08-04T15:22:40.666Z,38.65
2022-08-04T15:27:49.243Z,38.48
2022-08-04T15:33:02.445Z,38.57
2022-08-04T15:38:11.091Z,38.69
2022-08-04T15:43:55.451Z,38.71
2022-08-04T15:48:55.699Z,38.80
2022-08-04T15:54:24.510Z,38.78
2022-08-04T15:59:46.249Z,38.85
2022-08-04T16:04:54.786Z,39.16
2022-08-04T16:10:33.940Z,39.78
2022-08-04T16:15:45.713Z,40.57
2022-08-04T16:20:52.538Z,40.93
2022-08-04T16:25:58.214Z,40.54
2022-08-04T16:31:04.923Z,40.18
2022-08-04T16:36:12.541Z,39.93
2022-08-04T16:41:21.274Z,39.85
2022-08-04T16:47:21.638Z,39.78
2022-08-04T16:51:53.095Z,39.63
2022-08-04T16:57:00.261Z,39.51
2022-08-04T17:02:10.047Z,39.53
2022-08-04T17:07:15.796Z,39.60
2022-08-04T17:12:21.556Z,39.55
2022-08-04T17:18:03.988Z,39.55
2022-08-04T17:22:34.747Z,39.28
2022-08-04T17:28:06.185Z,38.93
2022-08-04T17:32:48.948Z,38.75
2022-08-04T17:37:57.995Z,38.37
2022-08-04T17:44:04.719Z,37.86
2022-08-04T17:48:24.945Z,37.03
2022-08-04T17:54:01.906Z,37.03
2022-08-04T17:58:43.497Z,36.55
2022-08-04T18:03:53.532Z,36.21
2022-08-04T18:09:22.770Z,35.95
2022-08-04T18:14:06.127Z,35.70
2022-08-04T18:19:19.000Z,35.37
2022-08-04T18:24:34.509Z,35.07
2022-08-04T18:29:34.417Z,34.76
2022-08-04T18:34:55.046Z,34.50
2022-08-04T18:40:09.444Z,34.25
2022-08-04T18:44:57.442Z,34.01
2022-08-04T18:50:58.456Z,33.78
2022-08-04T18:55:11.072Z,33.58
2022-08-04T19:00:19.843Z,33.30
2022-08-04T19:05:25.958Z,33.05
2022-08-04T19:10:33.352Z,32.84
2022-08-04T19:15:40.451Z,32.63
2022-08-04T19:20:49.041Z,32.45
2022-08-04T19:26:02.976Z,32.28
2022-08-04T19:31:05.079Z,32.11
2022-08-04T19:36:10.906Z,31.98
2022-08-04T19:41:18.148Z,31.86
2022-08-04T19:46:25.586Z,31.76
2022-08-04T19:51:33.723Z,31.65
2022-08-04T19:56:40.208Z,31.56
2022-08-04T20:01:47.123Z,31.47
2022-08-04T20:06:54.318Z,31.39
2022-08-04T20:11:59.902Z,31.33
2022-08-04T20:17:10.115Z,31.24
2022-08-04T20:22:52.183Z,31.15
2022-08-04T20:27:24.921Z,31.10
2022-08-04T20:32:32.096Z,31.02
2022-08-04T20:37:55.103Z,30.97
2022-08-04T20:42:48.224Z,30.92
2022-08-04T20:47:54.485Z,30.84
2022-08-04T20:53:00.790Z,30.79
2022-08-04T20:58:06.682Z,30.70
2022-08-04T21:03:13.569Z,30.64
2022-08-04T21:08:19.661Z,30.53
2022-08-04T21:13:27.759Z,30.50
2022-08-04T21:18:35.013Z,30.44
2022-08-04T21:23:41.608Z,30.37
2022-08-04T21:28:47.421Z,30.31
2022-08-04T21:33:53.388Z,30.27
2022-08-04T21:38:58.990Z,30.21
2022-08-04T21:44:05.603Z,30.16
2022-08-04T21:49:12.953Z,30.11
2022-08-04T21:54:18.728Z,30.09
2022-08-04T21:59:30.723Z,30.05
2022-08-04T22:04:32.827Z,30.04
2022-08-04T22:09:41.337Z,29.96
2022-08-04T22:14:50.507Z,29.93
2022-08-04T22:19:56.693Z,29.88
2022-08-04T22:25:12.313Z,29.77
2022-08-04T22:30:17.311Z,29.74
2022-08-04T22:35:35.464Z,29.58
2022-08-04T22:40:30.414Z,29.44
2022-08-04T22:45:43.330Z,29.43
2022-08-04T22:50:43.592Z,29.34
2022-08-04T22:56:07.611Z,29.20
2022-08-04T23:00:58.317Z,29.16
2022-08-04T23:06:06.425Z,29.12
2022-08-04T23:11:13.734Z,28.91
2022-08-04T23:16:20.520Z,28.70
2022-08-04T23:21:27.723Z,28.67
2022-08-04T23:26:34.942Z,28.61
2022-08-04T23:31:59.959Z,28.59
2022-08-04T23:36:49.782Z,28.55
2022-08-04T23:41:57.851Z,28.50
2022-08-04T23:47:04.500Z,28.43
2022-08-04T23:52:10.120Z,28.10
2022-08-04T23:57:19.238Z,27.81
